Time;durP1;ratioP1;P1;durP2;ratioP2;P2;SDS_P1;SDS_P2;PMS_P1;PMS_P2;Temp;Humidity;BMP_temperature;BMP_pressure;BME280_temperature;BME280_humidity;BME280_pressure;Samples;Min_cycle;Max_cycle;Signal;HPM_P1;HPM_P2
2023/07/13 00:01:46;;;;;;;2.78;0.70;;;16.60;99.90;;;;;;5080200;28;20042;-70
2023/07/13 00:04:13;;;;;;;4.68;1.08;;;16.60;99.90;;;;;;5079866;28;20051;-70
2023/07/13 00:06:39;;;;;;;2.00;0.80;;;16.60;99.90;;;;;;5071765;28;20078;-70
2023/07/13 00:09:05;;;;;;;7.05;0.90;;;16.60;99.90;;;;;;5080191;28;20117;-70
2023/07/13 00:11:30;;;;;;;7.65;1.08;;;16.60;99.90;;;;;;5071456;28;20496;-71
2023/07/13 00:13:56;;;;;;;5.55;1.00;;;16.60;99.90;;;;;;5077236;28;20484;-70
2023/07/13 00:16:21;;;;;;;2.33;0.70;;;16.60;99.90;;;;;;5075996;28;20605;-70
2023/07/13 00:18:47;;;;;;;3.70;1.10;;;16.60;99.90;;;;;;5074858;28;20529;-70
2023/07/13 00:21:14;;;;;;;2.97;0.80;;;16.60;99.90;;;;;;5073971;28;20521;-70
2023/07/13 00:23:41;;;;;;;5.57;1.17;;;16.60;99.90;;;;;;5077359;28;20052;-71
2023/07/13 00:26:09;;;;;;;2.13;0.80;;;16.60;99.90;;;;;;5071190;28;20552;-71
2023/07/13 00:28:35;;;;;;;2.28;0.70;;;16.60;99.90;;;;;;5073257;28;20044;-70
2023/07/13 00:31:01;;;;;;;4.38;1.35;;;16.60;99.90;;;;;;5076908;28;20052;-70
2023/07/13 00:33:28;;;;;;;5.78;1.40;;;16.60;99.90;;;;;;5075173;28;20032;-70
2023/07/13 00:35:56;;;;;;;7.60;1.17;;;16.60;99.90;;;;;;5072054;28;20028;-70
2023/07/13 00:38:22;;;;;;;7.28;1.65;;;16.60;99.90;;;;;;5067108;28;20040;-70
2023/07/13 00:40:48;;;;;;;5.25;0.93;;;16.60;99.90;;;;;;5075913;28;20410;-70
2023/07/13 00:43:17;;;;;;;5.45;1.00;;;16.60;99.90;;;;;;5073072;28;20040;-70
2023/07/13 00:45:43;;;;;;;2.95;0.93;;;16.60;99.90;;;;;;5077857;28;20045;-70
2023/07/13 00:48:11;;;;;;;4.10;0.80;;;16.60;99.90;;;;;;5077813;28;20040;-70
2023/07/13 00:50:38;;;;;;;6.60;1.00;;;16.60;99.90;;;;;;5078927;28;20093;-70
2023/07/13 00:53:03;;;;;;;3.05;0.93;;;16.60;99.90;;;;;;5070741;28;20029;-71
2023/07/13 00:55:29;;;;;;;3.92;0.75;;;16.60;99.90;;;;;;5076828;28;20094;-70
2023/07/13 00:57:55;;;;;;;1.77;0.80;;;16.60;99.90;;;;;;5082640;28;20040;-70
2023/07/13 01:00:23;;;;;;;2.95;0.70;;;16.60;99.90;;;;;;5082819;28;20028;-70
2023/07/13 01:02:49;;;;;;;3.70;0.80;;;16.60;99.90;;;;;;5077333;28;20440;-70
2023/07/13 01:05:18;;;;;;;5.65;1.10;;;16.50;99.90;;;;;;5075671;28;20102;-70
2023/07/13 01:07:44;;;;;;;7.13;1.08;;;16.50;99.90;;;;;;5073778;28;20036;-71
2023/07/13 01:10:12;;;;;;;2.72;0.82;;;16.50;99.90;;;;;;5075765;28;20544;-70
2023/07/13 01:12:37;;;;;;;4.82;1.00;;;16.50;99.90;;;;;;5078366;28;20045;-70
2023/07/13 01:15:04;;;;;;;3.80;1.00;;;16.50;99.90;;;;;;5078181;28;20028;-70
2023/07/13 01:17:31;;;;;;;1.63;0.80;;;16.50;99.90;;;;;;5079033;28;20040;-71
2023/07/13 01:19:57;;;;;;;2.20;0.95;;;16.50;99.90;;;;;;5079138;28;20035;-70
2023/07/13 01:22:25;;;;;;;3.38;1.17;;;16.50;99.90;;;;;;5077859;28;20044;-71
2023/07/13 01:24:52;;;;;;;4.80;1.00;;;16.40;99.90;;;;;;5081616;28;20039;-71
2023/07/13 01:27:24;;;;;;;3.97;1.30;;;16.40;99.90;;;;;;5077347;28;20060;-70
2023/07/13 01:29:51;;;;;;;4.22;0.80;;;16.40;99.90;;;;;;5079701;28;20060;-71
2023/07/13 01:32:23;;;;;;;2.67;0.82;;;16.40;99.90;;;;;;5064261;28;20032;-71
2023/07/13 01:34:56;;;;;;;3.78;0.73;;;16.40;99.90;;;;;;5070378;28;20143;-70
2023/07/13 01:37:24;;;;;;;3.20;1.20;;;16.40;99.90;;;;;;5082454;28;20481;-71
2023/07/13 01:39:50;;;;;;;4.70;1.40;;;16.40;99.90;;;;;;5056310;28;20293;-70
2023/07/13 01:42:16;;;;;;;5.03;0.77;;;16.40;99.90;;;;;;5078561;28;20297;-71
2023/07/13 01:44:41;;;;;;;4.78;1.00;;;16.40;99.90;;;;;;5084078;28;20039;-70
2023/07/13 01:47:07;;;;;;;3.67;0.90;;;16.30;99.90;;;;;;5079173;28;20439;-70
2023/07/13 01:49:32;;;;;;;2.75;0.95;;;16.30;99.90;;;;;;5080693;28;20432;-70
2023/07/13 01:51:58;;;;;;;2.10;0.77;;;16.30;99.90;;;;;;5078729;28;20384;-70
2023/07/13 01:54:24;;;;;;;6.35;1.75;;;16.30;99.90;;;;;;5077969;28;20035;-70
2023/07/13 01:56:49;;;;;;;2.30;0.90;;;16.30;99.90;;;;;;5070697;28;20097;-71
2023/07/13 01:59:15;;;;;;;5.60;1.00;;;16.30;99.90;;;;;;5084729;28;20042;-71
2023/07/13 02:01:41;;;;;;;3.47;0.90;;;16.30;99.90;;;;;;5078263;28;20032;-70
2023/07/13 02:04:06;;;;;;;5.35;1.13;;;16.30;99.90;;;;;;5078541;28;20433;-70
2023/07/13 02:06:32;;;;;;;1.20;1.00;;;16.30;99.90;;;;;;5090011;28;20028;-70
2023/07/13 02:08:59;;;;;;;2.92;1.10;;;16.30;99.90;;;;;;5076381;28;20040;-70
2023/07/13 02:11:25;;;;;;;3.60;0.90;;;16.30;99.90;;;;;;5074338;28;20461;-70
2023/07/13 02:13:51;;;;;;;3.28;0.98;;;16.30;99.90;;;;;;5075124;28;20115;-70
2023/07/13 02:16:17;;;;;;;6.35;0.93;;;16.30;99.90;;;;;;5076326;28;20132;-70
2023/07/13 02:18:43;;;;;;;5.15;1.00;;;16.30;99.90;;;;;;5081869;28;20119;-70
2023/07/13 02:21:08;;;;;;;5.40;1.10;;;16.30;99.90;;;;;;5076428;28;20036;-70
2023/07/13 02:23:34;;;;;;;2.65;1.23;;;16.30;99.90;;;;;;5076823;28;20044;-70
2023/07/13 02:26:02;;;;;;;5.53;1.00;;;16.40;99.90;;;;;;5077491;28;20442;-70
2023/07/13 02:28:28;;;;;;;9.05;1.00;;;16.30;99.90;;;;;;5078762;28;21652;-70
2023/07/13 02:30:53;;;;;;;5.88;0.90;;;16.30;99.90;;;;;;5083027;28;20408;-70
2023/07/13 02:33:19;;;;;;;5.70;1.00;;;16.30;99.90;;;;;;5075528;28;20058;-70
2023/07/13 02:35:45;;;;;;;4.95;1.05;;;16.30;99.90;;;;;;5077988;28;20624;-70
2023/07/13 02:38:11;;;;;;;3.40;1.10;;;16.30;99.90;;;;;;5075167;28;20122;-70
2023/07/13 02:40:38;;;;;;;6.18;1.15;;;16.20;99.90;;;;;;5078100;28;20179;-70
2023/07/13 02:43:03;;;;;;;3.90;1.13;;;16.20;99.90;;;;;;5069171;28;20033;-70
2023/07/13 02:45:29;;;;;;;4.53;0.90;;;16.20;99.90;;;;;;5081952;28;20036;-70
2023/07/13 02:47:55;;;;;;;3.58;1.00;;;16.20;99.90;;;;;;5080510;28;20040;-70
2023/07/13 02:50:20;;;;;;;5.55;1.38;;;16.20;99.90;;;;;;5078850;28;20024;-70
2023/07/13 02:52:46;;;;;;;4.88;1.25;;;16.20;99.90;;;;;;5071382;28;20571;-70
2023/07/13 02:55:12;;;;;;;6.55;1.05;;;16.20;99.90;;;;;;5061688;28;20393;-70
2023/07/13 02:57:37;;;;;;;5.35;1.10;;;16.20;99.90;;;;;;5072609;28;20051;-71
2023/07/13 03:00:05;;;;;;;5.93;1.23;;;16.20;99.90;;;;;;5079331;28;20409;-71
2023/07/13 03:02:32;;;;;;;4.68;1.05;;;16.20;99.90;;;;;;5072479;28;20040;-71
2023/07/13 03:04:58;;;;;;;4.63;0.90;;;16.20;99.90;;;;;;5053140;28;20040;-70
2023/07/13 03:07:25;;;;;;;7.38;1.10;;;16.20;99.90;;;;;;5075683;28;20040;-70
2023/07/13 03:09:57;;;;;;;4.72;1.15;;;16.20;99.90;;;;;;5063617;28;20036;-70
2023/07/13 03:12:23;;;;;;;6.97;1.38;;;16.10;99.90;;;;;;5066606;28;20049;-70
2023/07/13 03:14:49;;;;;;;4.28;0.80;;;16.10;99.90;;;;;;5077314;28;20036;-70
2023/07/13 03:17:14;;;;;;;3.42;0.95;;;16.10;99.90;;;;;;5074937;28;20542;-70
2023/07/13 03:19:40;;;;;;;3.85;0.95;;;16.10;99.90;;;;;;5074550;28;20038;-70
2023/07/13 03:22:06;;;;;;;2.88;0.75;;;16.10;99.90;;;;;;5077171;28;20044;-70
2023/07/13 03:24:34;;;;;;;6.47;1.08;;;16.10;99.90;;;;;;5072730;28;20396;-70
2023/07/13 03:27:02;;;;;;;6.10;1.58;;;16.10;99.90;;;;;;5079283;28;20059;-70
2023/07/13 03:29:27;;;;;;;4.20;1.20;;;16.10;99.90;;;;;;5077716;28;20505;-70
2023/07/13 03:31:53;;;;;;;5.78;1.13;;;16.10;99.90;;;;;;5077654;28;20042;-71
2023/07/13 03:34:19;;;;;;;2.88;1.30;;;16.10;99.90;;;;;;5068616;28;20032;-70
2023/07/13 03:36:44;;;;;;;5.28;1.00;;;16.10;99.90;;;;;;5079422;28;20047;-70
2023/07/13 03:39:10;;;;;;;6.50;0.90;;;16.00;99.90;;;;;;5079774;28;20041;-70
2023/07/13 03:41:36;;;;;;;4.38;0.98;;;16.00;99.90;;;;;;5076775;28;20375;-70
2023/07/13 03:44:01;;;;;;;4.78;1.10;;;16.00;99.90;;;;;;5077493;28;20043;-70
2023/07/13 03:46:27;;;;;;;2.72;0.98;;;16.00;99.90;;;;;;5076892;28;20039;-71
2023/07/13 03:48:53;;;;;;;4.78;1.08;;;15.90;99.90;;;;;;5070853;28;20044;-70
2023/07/13 03:51:19;;;;;;;3.25;0.80;;;15.90;99.90;;;;;;5071706;28;20033;-71
2023/07/13 03:53:46;;;;;;;3.45;1.13;;;15.90;99.90;;;;;;5077869;28;20052;-70
2023/07/13 03:56:15;;;;;;;3.22;1.30;;;16.00;99.90;;;;;;5077261;28;20032;-70
2023/07/13 03:58:42;;;;;;;4.32;1.35;;;16.00;99.90;;;;;;5079128;28;20141;-70
2023/07/13 04:01:10;;;;;;;6.10;1.23;;;16.00;99.90;;;;;;5077605;28;20094;-70
2023/07/13 04:03:36;;;;;;;8.80;1.05;;;16.00;99.90;;;;;;5062037;28;20204;-70
2023/07/13 04:06:04;;;;;;;3.67;1.10;;;16.00;99.90;;;;;;5074595;28;20511;-70
2023/07/13 04:08:33;;;;;;;6.85;1.23;;;15.90;99.90;;;;;;5079113;28;20501;-70
2023/07/13 04:10:58;;;;;;;3.33;1.00;;;15.90;99.90;;;;;;5072375;28;20036;-70
2023/07/13 04:13:25;;;;;;;4.93;0.90;;;15.90;99.90;;;;;;5076000;28;20417;-71
2023/07/13 04:15:52;;;;;;;6.38;1.10;;;15.90;99.90;;;;;;5076265;28;20485;-70
2023/07/13 04:18:19;;;;;;;7.13;1.15;;;15.90;99.90;;;;;;5072084;28;20505;-70
2023/07/13 04:20:49;;;;;;;3.13;0.95;;;15.90;99.90;;;;;;5075672;28;20039;-71
2023/07/13 04:23:15;;;;;;;4.82;1.20;;;15.80;99.90;;;;;;5072183;28;20087;-71
2023/07/13 04:25:46;;;;;;;2.72;1.30;;;15.90;99.90;;;;;;5077476;28;20064;-71
2023/07/13 04:28:12;;;;;;;3.80;1.00;;;15.90;99.90;;;;;;5078093;28;20039;-71
2023/07/13 04:30:37;;;;;;;4.57;1.30;;;16.00;99.90;;;;;;5076051;28;20041;-70
2023/07/13 04:33:04;;;;;;;5.18;1.23;;;16.00;99.90;;;;;;5074178;28;20320;-70
2023/07/13 04:35:30;;;;;;;5.25;1.60;;;16.00;99.90;;;;;;5077201;28;20060;-70
2023/07/13 04:37:56;;;;;;;5.25;1.58;;;16.00;99.90;;;;;;5071182;28;20414;-70
2023/07/13 04:40:22;;;;;;;5.10;1.30;;;16.00;99.90;;;;;;5055703;28;20037;-71
2023/07/13 04:42:47;;;;;;;3.53;1.30;;;15.90;99.90;;;;;;5046619;28;20057;-71
2023/07/13 04:45:17;;;;;;;5.10;1.30;;;16.00;99.90;;;;;;5082722;28;20091;-71
2023/07/13 04:47:43;;;;;;;4.50;1.10;;;16.00;99.90;;;;;;5065823;28;20448;-71
2023/07/13 04:50:10;;;;;;;5.00;1.50;;;16.00;99.90;;;;;;5068700;28;20093;-70
2023/07/13 04:52:36;;;;;;;2.85;1.02;;;16.00;99.90;;;;;;5067638;28;20036;-70
2023/07/13 04:55:02;;;;;;;4.32;1.33;;;16.10;99.90;;;;;;5078240;28;20100;-70
2023/07/13 04:57:28;;;;;;;2.67;1.10;;;16.00;99.90;;;;;;5069985;28;20258;-71
2023/07/13 04:59:54;;;;;;;4.57;1.17;;;16.00;99.90;;;;;;5065297;28;20041;-71
2023/07/13 05:02:23;;;;;;;5.82;1.05;;;16.10;99.90;;;;;;5063304;28;20044;-71
2023/07/13 05:04:49;;;;;;;5.50;1.67;;;16.10;99.90;;;;;;5064219;28;20071;-71
2023/07/13 05:07:15;;;;;;;5.80;1.33;;;16.10;99.90;;;;;;5067063;28;20097;-70
2023/07/13 05:09:41;;;;;;;9.30;1.30;;;16.10;99.90;;;;;;5069135;28;20071;-70
2023/07/13 05:12:08;;;;;;;6.25;1.27;;;16.10;99.90;;;;;;5065180;28;20067;-70
2023/07/13 05:14:34;;;;;;;7.13;1.50;;;16.10;99.90;;;;;;5065735;28;20040;-70
2023/07/13 05:16:59;;;;;;;3.10;1.30;;;16.10;99.90;;;;;;5068565;28;20378;-70
2023/07/13 05:19:25;;;;;;;5.13;1.17;;;16.10;99.90;;;;;;5066918;28;20028;-70
2023/07/13 05:21:51;;;;;;;3.80;1.23;;;16.10;99.90;;;;;;5060102;28;20424;-70
2023/07/13 05:24:16;;;;;;;11.57;1.65;;;16.10;99.90;;;;;;5067008;28;21808;-70
2023/07/13 05:26:42;;;;;;;7.65;1.70;;;16.10;99.90;;;;;;5065141;28;20052;-70
2023/07/13 05:29:08;;;;;;;3.47;0.90;;;16.10;99.90;;;;;;5069099;28;20083;-70
2023/07/13 05:31:33;;;;;;;8.38;1.30;;;16.10;99.90;;;;;;5068230;28;20040;-71
2023/07/13 05:33:59;;;;;;;8.65;1.00;;;16.20;99.90;;;;;;5080747;28;20029;-70
2023/07/13 05:36:24;;;;;;;5.60;1.40;;;16.20;99.90;;;;;;5066746;28;20043;-70
2023/07/13 05:38:50;;;;;;;6.30;1.60;;;16.20;99.90;;;;;;5066969;28;20040;-70
2023/07/13 05:41:16;;;;;;;5.15;1.50;;;16.20;99.90;;;;;;5080269;28;20063;-70
2023/07/13 05:43:41;;;;;;;4.20;1.10;;;16.20;99.90;;;;;;5074298;28;20080;-70
2023/07/13 05:46:07;;;;;;;5.85;1.17;;;16.30;99.90;;;;;;5086358;28;20040;-70
2023/07/13 05:48:33;;;;;;;4.30;1.30;;;16.30;99.90;;;;;;5073652;28;20036;-70
2023/07/13 05:50:58;;;;;;;2.65;1.30;;;16.20;99.90;;;;;;5067293;28;20043;-71
2023/07/13 05:53:24;;;;;;;7.60;1.33;;;16.30;99.90;;;;;;5069228;28;20413;-70
2023/07/13 05:55:50;;;;;;;9.00;1.33;;;16.30;99.90;;;;;;5063133;28;20056;-71
2023/07/13 05:58:17;;;;;;;3.70;1.13;;;16.30;99.90;;;;;;5065069;28;20507;-70
2023/07/13 06:00:43;;;;;;;3.58;1.25;;;16.30;99.90;;;;;;5069545;28;20049;-70
2023/07/13 06:03:08;;;;;;;6.18;1.45;;;16.40;99.90;;;;;;5070165;28;20050;-70
2023/07/13 06:05:36;;;;;;;5.25;1.10;;;16.40;99.90;;;;;;5071517;28;20039;-70
2023/07/13 06:08:02;;;;;;;6.22;1.25;;;16.50;99.90;;;;;;5071136;28;20036;-70
2023/07/13 06:10:28;;;;;;;5.57;1.30;;;16.50;99.90;;;;;;5071473;28;20679;-71
2023/07/13 06:12:53;;;;;;;3.25;1.60;;;16.50;99.90;;;;;;5068369;28;20032;-71
2023/07/13 06:15:19;;;;;;;4.82;1.38;;;16.60;99.90;;;;;;5066971;28;20150;-71
2023/07/13 06:17:45;;;;;;;3.70;1.30;;;16.60;99.90;;;;;;5070882;28;20387;-71
2023/07/13 06:20:11;;;;;;;4.65;1.13;;;16.60;99.90;;;;;;5051156;28;20538;-70
2023/07/13 06:22:36;;;;;;;6.10;1.17;;;16.70;99.90;;;;;;5061115;28;20453;-71
2023/07/13 06:25:02;;;;;;;4.00;1.35;;;16.90;99.90;;;;;;5081252;28;20040;-70
2023/07/13 06:27:28;;;;;;;6.00;1.60;;;17.00;99.90;;;;;;5069312;28;20629;-71
2023/07/13 06:29:54;;;;;;;5.25;1.50;;;17.00;99.90;;;;;;5063350;28;20037;-71
2023/07/13 06:32:20;;;;;;;4.65;1.45;;;17.00;99.90;;;;;;5066810;28;20036;-71
2023/07/13 06:34:46;;;;;;;7.30;1.30;;;17.00;99.90;;;;;;5058145;28;20032;-72
2023/07/13 06:37:11;;;;;;;9.15;1.30;;;17.10;99.90;;;;;;5077132;28;20032;-71
2023/07/13 06:39:37;;;;;;;5.07;1.65;;;17.30;99.90;;;;;;5070455;28;20114;-71
2023/07/13 06:42:04;;;;;;;5.80;1.55;;;17.90;99.90;;;;;;5069617;28;20047;-71
2023/07/13 06:44:30;;;;;;;4.63;1.27;;;19.00;99.90;;;;;;5072728;28;20063;-72
2023/07/13 06:46:55;;;;;;;8.25;1.38;;;19.90;99.90;;;;;;5066666;28;20093;-72
2023/07/13 06:49:21;;;;;;;2.50;0.98;;;20.80;99.90;;;;;;5051867;28;20047;-71
2023/07/13 06:51:46;;;;;;;4.53;1.42;;;21.50;99.90;;;;;;5078368;28;20035;-72
2023/07/13 06:54:13;;;;;;;7.00;1.38;;;22.00;99.90;;;;;;5066109;28;20029;-71
2023/07/13 06:56:39;;;;;;;3.95;1.00;;;22.40;99.90;;;;;;5072173;28;20067;-71
2023/07/13 06:59:04;;;;;;;2.80;1.02;;;22.70;99.90;;;;;;5066107;28;20123;-71
2023/07/13 07:01:30;;;;;;;4.18;1.10;;;22.40;99.90;;;;;;5069106;28;20894;-71
2023/07/13 07:03:56;;;;;;;2.67;0.95;;;21.70;99.90;;;;;;5073911;28;20059;-73
2023/07/13 07:06:23;;;;;;;5.15;1.45;;;21.30;99.90;;;;;;5068944;28;20028;-71
2023/07/13 07:08:50;;;;;;;4.38;1.25;;;20.80;99.90;;;;;;5076121;28;20039;-71
2023/07/13 07:11:24;;;;;;;8.68;1.20;;;20.50;99.90;;;;;;5070716;28;20543;-72
2023/07/13 07:13:52;;;;;;;4.00;1.25;;;20.20;99.90;;;;;;5065955;28;20097;-72
2023/07/13 07:16:18;;;;;;;5.00;1.15;;;19.90;99.90;;;;;;5070160;28;20064;-71
2023/07/13 07:18:44;;;;;;;5.07;1.50;;;19.70;99.90;;;;;;5069007;28;20452;-72
2023/07/13 07:21:10;;;;;;;3.08;0.98;;;19.50;99.90;;;;;;5065173;28;20043;-72
2023/07/13 07:23:36;;;;;;;6.38;1.20;;;19.40;99.90;;;;;;5064339;28;20047;-72
2023/07/13 07:26:02;;;;;;;4.25;1.30;;;19.30;99.90;;;;;;5082533;28;20052;-72
2023/07/13 07:28:28;;;;;;;2.75;1.17;;;19.10;99.90;;;;;;5080422;28;20088;-71
2023/07/13 07:30:56;;;;;;;5.60;1.27;;;19.00;99.90;;;;;;5066443;28;20036;-71
2023/07/13 07:33:22;;;;;;;4.82;1.30;;;19.00;99.90;;;;;;5082628;28;20047;-71
2023/07/13 07:35:48;;;;;;;2.33;1.17;;;19.00;99.90;;;;;;5068690;28;20032;-71
2023/07/13 07:38:14;;;;;;;3.90;1.17;;;18.90;99.90;;;;;;5070407;28;20180;-71
2023/07/13 07:40:40;;;;;;;4.88;1.20;;;18.90;99.90;;;;;;5068191;28;20120;-71
2023/07/13 07:43:08;;;;;;;5.60;1.55;;;18.90;99.90;;;;;;5062259;28;20051;-72
2023/07/13 07:45:34;;;;;;;3.97;1.10;;;19.00;99.90;;;;;;5065784;28;20040;-71
2023/07/13 07:48:00;;;;;;;2.30;1.10;;;18.90;99.90;;;;;;5065727;28;20033;-71
2023/07/13 07:50:27;;;;;;;3.45;1.50;;;19.00;99.90;;;;;;5062456;28;20086;-72
2023/07/13 07:52:53;;;;;;;3.92;1.20;;;18.90;99.90;;;;;;5067809;28;20064;-72
2023/07/13 07:55:18;;;;;;;4.55;1.38;;;18.80;99.90;;;;;;5068033;28;20476;-72
2023/07/13 07:57:44;;;;;;;4.85;1.73;;;18.60;99.90;;;;;;5063637;28;20048;-72
2023/07/13 08:00:10;;;;;;;7.05;1.52;;;18.60;99.90;;;;;;5067074;28;20059;-72
2023/07/13 08:02:36;;;;;;;4.95;1.60;;;18.50;99.90;;;;;;5066883;28;20045;-72
2023/07/13 08:05:02;;;;;;;5.75;1.50;;;18.50;99.90;;;;;;5084033;28;20040;-72
2023/07/13 08:07:27;;;;;;;7.50;1.65;;;18.40;99.90;;;;;;5066355;28;20043;-72
2023/07/13 08:09:54;;;;;;;3.75;1.80;;;18.40;99.90;;;;;;5068509;28;20033;-72
2023/07/13 08:12:19;;;;;;;4.13;1.83;;;18.40;99.90;;;;;;5065820;28;20036;-72
2023/07/13 08:14:45;;;;;;;4.85;1.95;;;18.50;99.90;;;;;;5064294;28;20028;-72
2023/07/13 08:17:11;;;;;;;4.93;1.95;;;18.60;99.90;;;;;;5064699;28;20548;-72
2023/07/13 08:19:36;;;;;;;4.57;1.90;;;18.70;99.90;;;;;;5065029;28;20068;-72
2023/07/13 08:22:02;;;;;;;3.38;1.80;;;18.80;99.90;;;;;;5066415;28;20496;-73
2023/07/13 08:24:28;;;;;;;4.07;1.50;;;19.00;99.90;;;;;;5069286;28;20036;-72
2023/07/13 08:26:53;;;;;;;4.03;1.60;;;19.10;99.90;;;;;;5073534;28;20056;-71
2023/07/13 08:29:20;;;;;;;8.50;2.35;;;19.10;99.90;;;;;;5066181;28;20402;-72
2023/07/13 08:31:46;;;;;;;3.63;1.70;;;19.00;99.90;;;;;;5062345;28;20078;-71
2023/07/13 08:34:11;;;;;;;3.70;2.03;;;19.00;99.90;;;;;;5067096;28;20471;-72
2023/07/13 08:36:37;;;;;;;7.53;1.85;;;18.90;99.90;;;;;;5055569;28;20123;-72
2023/07/13 08:39:02;;;;;;;6.72;1.92;;;18.90;99.90;;;;;;5057585;28;20044;-72
2023/07/13 08:41:28;;;;;;;6.00;1.98;;;18.80;99.90;;;;;;5065054;28;20079;-72
2023/07/13 08:43:58;;;;;;;4.30;2.05;;;18.70;99.90;;;;;;5070700;28;20094;-72
2023/07/13 08:46:33;;;;;;;7.40;1.52;;;18.60;99.90;;;;;;5075755;28;20944;-71
2023/07/13 08:49:11;;;;;;;4.07;1.80;;;18.40;99.90;;;;;;5060839;28;20136;-72
2023/07/13 08:51:48;;;;;;;5.93;1.77;;;18.30;99.90;;;;;;5057731;28;20485;-72
2023/07/13 08:54:26;;;;;;;5.30;1.67;;;18.10;99.90;;;;;;5073302;28;20540;-72
2023/07/13 08:56:54;;;;;;;6.00;2.15;;;18.00;99.90;;;;;;5070978;28;20032;-72
2023/07/13 08:59:25;;;;;;;4.75;2.03;;;18.00;99.90;;;;;;5076805;28;20063;-72
2023/07/13 09:02:09;;;;;;;3.90;1.20;;;17.90;99.90;;;;;;5057737;28;20118;-73
2023/07/13 09:04:42;;;;;;;2.80;1.38;;;17.90;99.90;;;;;;5060598;28;20040;-72
2023/07/13 09:07:23;;;;;;;4.40;1.20;;;17.80;99.90;;;;;;5059502;28;20048;-72
2023/07/13 09:10:13;;;;;;;4.35;1.30;;;17.80;99.90;;;;;;5064824;28;20044;-72
2023/07/13 09:12:46;;;;;;;4.10;1.55;;;17.70;99.90;;;;;;5061263;28;20459;-72
2023/07/13 09:15:30;;;;;;;4.00;1.20;;;17.70;99.90;;;;;;5077773;28;20033;-72
2023/07/13 09:18:01;;;;;;;3.80;1.77;;;17.60;99.90;;;;;;5064153;28;20047;-73
2023/07/13 09:20:52;;;;;;;4.45;1.55;;;17.60;99.90;;;;;;5066081;28;20040;-71
2023/07/13 09:23:22;;;;;;;3.47;1.50;;;17.60;99.90;;;;;;5066726;28;20052;-72
2023/07/13 09:25:54;;;;;;;6.05;1.58;;;17.50;99.90;;;;;;5067125;28;20061;-71
2023/07/13 09:28:25;;;;;;;3.30;1.60;;;17.50;99.90;;;;;;5067660;28;20040;-72
2023/07/13 09:31:46;;;;;;;4.15;1.55;;;17.50;99.90;;;;;;5070899;28;20494;-72
2023/07/13 09:34:13;;;;;;;4.55;1.50;;;17.40;99.90;;;;;;5054668;28;22072;-75
2023/07/13 09:36:39;;;;;;;4.95;1.90;;;17.40;99.90;;;;;;5065151;28;20071;-73
2023/07/13 09:39:08;;;;;;;3.47;1.30;;;17.40;99.90;;;;;;5073078;28;20051;-73
2023/07/13 09:41:58;;;;;;;3.72;1.35;;;17.40;99.90;;;;;;5068001;28;20035;-73
2023/07/13 09:44:30;;;;;;;1.88;0.95;;;17.30;99.90;;;;;;5053555;28;20044;-75
2023/07/13 09:46:56;;;;;;;4.00;1.17;;;17.20;99.90;;;;;;5069575;28;20060;-71
2023/07/13 09:49:27;;;;;;;2.08;1.00;;;17.10;99.90;;;;;;5076897;28;20091;-71
2023/07/13 09:52:05;;;;;;;2.50;0.77;;;17.10;99.90;;;;;;5064168;28;20039;-72
2023/07/13 09:54:34;;;;;;;2.75;0.90;;;17.00;99.90;;;;;;5071599;28;20028;-71
2023/07/13 09:57:01;;;;;;;2.53;0.80;;;17.00;99.90;;;;;;5063544;28;20119;-71
2023/07/13 09:59:42;;;;;;;2.97;0.93;;;17.00;99.90;;;;;;5066983;28;21494;-71
2023/07/13 10:02:33;;;;;;;4.03;1.02;;;17.10;99.90;;;;;;5069071;28;20561;-71
2023/07/13 10:05:00;;;;;;;5.72;1.23;;;17.10;99.90;;;;;;5071246;28;20119;-71
2023/07/13 10:07:26;;;;;;;2.20;0.88;;;17.10;99.90;;;;;;5070192;28;20044;-72
2023/07/13 10:10:02;;;;;;;2.60;1.38;;;17.20;99.90;;;;;;5055945;28;20044;-72
2023/07/13 10:12:30;;;;;;;1.23;0.77;;;17.30;99.90;;;;;;5059673;28;20035;-71
2023/07/13 10:14:59;;;;;;;1.70;1.00;;;17.40;99.90;;;;;;5069816;28;20144;-68
2023/07/13 10:17:32;;;;;;;1.70;0.90;;;17.60;99.90;;;;;;5067601;28;20040;-71
2023/07/13 10:20:10;;;;;;;1.80;0.80;;;17.60;99.90;;;;;;5087184;28;20047;-71
2023/07/13 10:22:50;;;;;;;2.85;1.25;;;17.70;99.90;;;;;;5070010;28;20202;-71
2023/07/13 10:25:25;;;;;;;3.55;1.13;;;17.90;99.90;;;;;;5061334;28;20032;-71
2023/07/13 10:27:56;;;;;;;5.53;1.00;;;18.00;99.90;;;;;;5068090;28;20055;-70
2023/07/13 10:30:29;;;;;;;6.18;1.67;;;18.00;99.90;;;;;;5067246;28;20302;-71
2023/07/13 10:32:59;;;;;;;2.33;1.15;;;18.10;99.90;;;;;;5069820;28;20044;-71
2023/07/13 10:35:27;;;;;;;2.35;1.30;;;18.20;99.90;;;;;;5070325;28;20036;-71
2023/07/13 10:38:05;;;;;;;3.97;1.25;;;18.30;99.90;;;;;;5069590;28;20063;-71
2023/07/13 10:40:41;;;;;;;2.53;1.27;;;18.40;99.90;;;;;;5073532;28;20447;-71
2023/07/13 10:43:32;;;;;;;4.80;1.67;;;18.50;99.90;;;;;;5061356;28;20044;-71
2023/07/13 10:46:00;;;;;;;2.88;1.52;;;18.60;99.90;;;;;;5075835;28;20284;-71
2023/07/13 10:48:26;;;;;;;4.07;1.63;;;18.80;99.90;;;;;;5074538;28;20117;-71
2023/07/13 10:50:55;;;;;;;3.13;1.83;;;18.90;99.90;;;;;;5067558;28;20401;-71
2023/07/13 10:53:32;;;;;;;4.18;1.83;;;19.10;99.90;;;;;;5073017;28;20489;-71
2023/07/13 10:56:02;;;;;;;3.13;1.75;;;19.20;99.90;;;;;;5071298;28;20039;-71
2023/07/13 10:58:39;;;;;;;3.78;1.70;;;19.30;99.90;;;;;;5064901;28;20541;-71
2023/07/13 11:01:10;;;;;;;4.85;2.22;;;19.40;99.90;;;;;;5065774;28;20044;-71
2023/07/13 11:03:38;;;;;;;3.78;1.80;;;19.50;99.90;;;;;;5067658;28;20042;-71
2023/07/13 11:06:22;;;;;;;3.85;1.48;;;19.60;99.90;;;;;;5069202;28;20055;-71
2023/07/13 11:08:48;;;;;;;7.13;2.20;;;19.50;99.90;;;;;;5050594;28;20585;-71
2023/07/13 11:11:29;;;;;;;11.43;2.53;;;19.30;99.90;;;;;;5072186;28;20044;-71
2023/07/13 11:13:58;;;;;;;4.85;1.50;;;19.00;99.90;;;;;;5081413;28;20055;-73
2023/07/13 11:16:24;;;;;;;4.50;1.83;;;18.30;99.90;;;;;;5068278;28;20908;-73
2023/07/13 11:19:25;;;;;;;4.43;1.38;;;17.90;99.90;;;;;;5066605;28;20243;-72
2023/07/13 11:22:42;;;;;;;3.28;1.52;;;17.60;99.90;;;;;;5067202;28;20040;-72
2023/07/13 11:25:20;;;;;;;2.47;1.35;;;17.30;99.90;;;;;;5022372;28;20051;-72
2023/07/13 11:27:51;;;;;;;3.00;1.20;;;17.10;99.90;;;;;;5074983;28;20091;-72
2023/07/13 11:30:24;;;;;;;2.38;1.30;;;17.10;99.90;;;;;;5072341;28;20055;-72
2023/07/13 11:33:14;;;;;;;2.40;1.52;;;17.10;99.90;;;;;;5070548;28;20044;-72
2023/07/13 11:35:46;;;;;;;2.22;1.02;;;17.00;99.90;;;;;;5066778;28;20044;-72
2023/07/13 11:38:23;;;;;;;4.40;1.42;;;16.80;99.90;;;;;;5064949;28;20551;-72
2023/07/13 11:40:53;;;;;;;3.45;1.30;;;16.80;99.90;;;;;;5061076;28;20036;-73
2023/07/13 11:43:18;;;;;;;2.67;1.33;;;16.80;99.90;;;;;;5066660;28;20044;-73
2023/07/13 11:45:44;;;;;;;7.32;1.75;;;16.80;99.90;;;;;;5078159;28;20041;-72
2023/07/13 11:48:23;;;;;;;3.90;1.50;;;16.90;99.90;;;;;;5067452;28;20025;-73
2023/07/13 11:51:19;;;;;;;4.93;2.05;;;17.10;99.90;;;;;;5065025;28;20286;-73
2023/07/13 11:53:48;;;;;;;6.78;2.55;;;17.10;99.90;;;;;;5065359;28;20040;-73
2023/07/13 11:56:14;;;;;;;3.53;2.00;;;17.10;99.90;;;;;;5070477;28;20036;-72
2023/07/13 11:58:41;;;;;;;3.58;1.83;;;17.10;99.90;;;;;;5067182;28;20540;-73
2023/07/13 12:01:21;;;;;;;3.30;2.10;;;17.10;99.90;;;;;;5044657;28;20055;-73
2023/07/13 12:03:48;;;;;;;4.85;2.55;;;17.10;99.90;;;;;;5069859;28;20497;-73
2023/07/13 12:06:27;;;;;;;4.32;2.00;;;17.10;99.90;;;;;;5059239;28;20087;-73
2023/07/13 12:08:57;;;;;;;4.50;2.08;;;16.90;99.90;;;;;;5069130;28;20048;-72
2023/07/13 12:11:22;;;;;;;4.20;2.10;;;16.90;99.90;;;;;;5065703;28;20044;-72
2023/07/13 12:13:49;;;;;;;4.32;2.20;;;16.90;99.90;;;;;;5056098;28;20049;-73
2023/07/13 12:16:25;;;;;;;4.40;1.73;;;16.90;99.90;;;;;;5060013;28;20506;-73
2023/07/13 12:18:52;;;;;;;3.95;1.90;;;16.90;99.90;;;;;;5067260;28;20498;-73
2023/07/13 12:21:21;;;;;;;4.75;2.08;;;16.80;99.90;;;;;;5067210;28;20044;-72
2023/07/13 12:23:49;;;;;;;2.47;1.45;;;16.90;99.90;;;;;;5066251;28;20049;-72
2023/07/13 12:26:17;;;;;;;1.98;1.17;;;16.90;99.90;;;;;;5066591;28;20101;-72
2023/07/13 12:28:52;;;;;;;2.25;1.17;;;16.90;99.90;;;;;;5061783;28;20569;-72
2023/07/13 12:31:43;;;;;;;3.40;1.10;;;16.90;99.90;;;;;;5064067;28;20521;-72
2023/07/13 12:34:13;;;;;;;2.72;1.30;;;16.90;99.90;;;;;;5060441;28;20059;-72
2023/07/13 12:37:01;;;;;;;4.18;1.27;;;16.90;99.90;;;;;;5065972;28;20475;-73
2023/07/13 12:39:43;;;;;;;3.97;1.17;;;16.90;99.90;;;;;;5066110;28;20102;-73
2023/07/13 12:42:28;;;;;;;2.75;1.42;;;16.80;99.90;;;;;;5064879;28;20042;-72
2023/07/13 12:45:17;;;;;;;3.72;1.20;;;16.80;99.90;;;;;;5066353;28;20044;-72
2023/07/13 12:47:47;;;;;;;1.92;0.85;;;16.80;99.90;;;;;;5067592;28;20528;-72
2023/07/13 12:50:19;;;;;;;1.80;0.95;;;16.90;99.90;;;;;;5071105;28;20466;-73
2023/07/13 12:52:53;;;;;;;2.25;0.82;;;16.80;99.90;;;;;;5066488;28;20079;-72
2023/07/13 12:55:21;;;;;;;3.25;1.20;;;16.60;99.90;;;;;;5071789;28;20413;-72
2023/07/13 12:57:56;;;;;;;2.85;1.20;;;16.50;99.90;;;;;;5069497;28;20118;-72